SÍGUENOS

APP INUMET

Disponible en Google Play

Productos aeronáuticos

  • SIGMET
  • METAR / SPECI
  • TAF
  • AIREP
  • Aviso de aeródromo
  • Pronárea
  • Carta superficie
Fecha : 16/08/2017
FTUY 01 SUMU 16 23 30
SUMU TAF 162330Z 1700/1724 VRB03KT CAVOK TX19/1718Z TN08/1710Z PROB30 TEMPO 1706/1712 2000 BR NSC BECMG 1708/1710 34015KT=
SULS TAF 162330Z 1700/1724 VRB03KT CAVOK TX19/1718Z TN08/1710Z PROB30 TEMPO 1706/1712 2000 BR NSC BECMG 1708/1710 34015KT=
SUAA TAF 162330Z 1700/1724 VRB03KT CAVOK TX19/1718Z TN08/1710Z PROB30 TEMPO 1706/1712 2000 BR NSC BECMG 1708/1710 34015KT=
SUCA TAF 162330Z 1700/1724 VRB03KT CAVOK TX19/1718Z TN08/1710Z PROB30 TEMPO 1706/1712 2000 BR NSC BECMG 1708/1710 34015KT=
SUDU TAF 162330Z 1700/1724 16005KT CAVOK TX21/1718Z TN05/1710Z PROB40 TEMPO 1706/1712 00000KT 0800 FG SCT007=
SUSO TAF 162330Z 1700/1724 16005KT CAVOK TX21/1718Z TN05/1710Z PROB40 TEMPO 1706/1712 00000KT 0800 FG SCT007=
SURV TAF 162330Z 1700/1724 16005KT CAVOK TX21/1718Z TN05/1710Z PROB40 TEMPO 1706/1712 00000KT 0800 FG SCT007=

Predictor : Andrea Gimenez


Mensajes TAF vigentes - Internacionales


Argentina
TAF SACO 161700Z 1618/1718 02010KT CAVOK TX22/1618Z TN04/1710Z BECMG 1700/1703 36010KT
TAF SABE 161700Z 1618/1718 05005KT CAVOK TX20/1718Z TN11/1710Z BECMG 1703/1705 36010KT
TAF SAAR 161700Z 1618/1718 0405KT CAVOK TX21/1718Z TN05/1710Z BECMG 1706/1708 3000 BR NSC BECMG 1712/1714 36010KT CAVOK
TAF SAEZ 161700Z 1618/1718 29005KT CAVOK TX20/1718Z TN08/1710Z BECMG 1701/1704 36005KT BECMG 1712/1715 32015KT
TAF SAME 160500Z 1606/1706 18015KT 9999 BKN040 SCT080 TN00/1610Z TX19/1620Z PROB30 TEMPO 1611/1614 VRB03KT 6000 HZFU BKN035
Bolivia
TAF SLLP 161555Z 1618/1718 30013KT 9999 SCT017 FEW020CB TX16/1620Z TNM03/1710Z TEMPO 1619/1622 31017G27KT BECMG 1623/1702 07005KT SCT015 FEW017CB BECMG 1705/1708 3000E VCFG FEW002 SCT013 BECMG 1712/1715 9999 NSW SCT015 FEW017CB
Brasil
TAF SBSP 161620Z 1618/1718 16008KT 7000 BKN011 TX16/1618Z TN11/1709Z TEMPO 1618/1702 4000 RADZ BR OVC004 TEMPO 1702/1707 10004KT 6000 RADZ BKN006 TEMPO 1707/1712 3000 RADZ BR BKN004 PROB40 TEMPO 1713/1718 6000 RA BKN012 RMK PHN
TAF SBGR 161620Z 1618/1724 15008KT 7000 BKN009 TX16/1618Z TN12/1709Z TEMPO 1618/1702 4000 RA BR OVC006 PROB40 1702/1707 13005KT 5000 DZ BR BKN007 BECMG 1707/1709 09005KT 8000 BKN008 PROB40 1709/1713 2000 RADZ BR BKN004 PROB40 TEMPO 1713/1718 6000 RA BKN012 BECMG 1718/1720 8000 BKN010 RMK PHN
TAF SBBR 161600Z 1618/1718 07007KT 8000 NSC TX29/1618Z TN16/1709Z BEC MG 1700/1702 11005KT RMK PDB
TAF SBFL 161530Z 1618/1718 15004KT 9999 SCT030 TX24/1618Z TN17/1709Z BECMG 1700/1702 18007KT BECMG 1704/1706 22004KT BKN025 BECMG 1709/1711 270 05KT SCT030 RMK PEB
TAF SBPA 161530Z 1618/1718 29005KT 9999 SCT020 TX20/1618Z TN11/1709Z BECMG 1702/1704 10005KT PROB30 1707/1712 4000 BR BKN008 RMK PEB
TAF SBFI 161530Z 1618/1718 11005KT 9999 SCT030 TX23/1618Z TN16/1709Z BECMG 1700/1702 18004KT FEW025 RMK PEB
TAF SBRJ 161500Z 1618/1706 18010KT 7000 SCT015 BKN040 TX23/1618Z TN19/1706Z PROB40 TEMPO 1618/1622 21010KT 5000 RA BKN015 BKN040 BECMG 1623/1701 36005KT RMK PHD
Colombia
TAF SKBO 161700Z 1618/1718 12012KT 9999 SCT017 SCT090 TEMPO 1618/1621 7000 DZRA BKN017 BECMG 1701/1703 VRB02KT TEMPO 1710/1713 7000 VCFG SCT010 TX19/1618Z TN09/1711Z
Chile
TAF COR SCCI 161651Z 1618/1718 26022G32KT 9000 FEW020 SCT030 TN00/1700Z TX04/1717Z TEMPO 1618/1700 22017KT TEMPO 1618/1704 6000 -SHRA -SHRASN FEW010 BKN020
TAF SCEL 161603Z 1618/1718 19004KT CAVOK TX19/1618Z TN01/1710Z BECMG 1700/1702 VRB02KT BECMG 1702/1704 7000 NSC TEMPO 1706/1714 16004KT 0700 FG NSC BECMG 1715/1717 19004KT CAVOK
Ecuador
SEQM 161445Z 1618/1718 01014KT 9999 SCT033 FM162300 04004KT 9999 BKN023 FM170900 00000KT 9999 SCT026 TX24/1619Z TN06/1711Z
EEUU
KJFK 162232Z 1623/1724 32010KT P6SM SCT070 BKN250 FM170100 35006KT P6SM SCT040 FM171300 04008KT P6SM SCT050 FM171800 17008KT P6SM FEW200
KIAD 162224Z 1622/1724 05004KT P6SM SCT040 FM162245 27010KT P6SM -SHRA OVC040 FM162330 VRB03KT P6SM FEW040 SCT100 FM170600 VRB03KT P6SM SCT040 BKN110 FM171700 17006KT P6SM SCT040 BKN070
KLGA 162138Z 1622/1718 32007KT P6SM SCT070 BKN250 FM170200 34006KT P6SM SCT040 FM170700 36006KT P6SM FEW250 FM171300 03006KT P6SM FEW250 FM171700 08006KT P6SM FEW200
KDCA 162100Z 1621/1718 34007KT P6SM FEW050 SCT150 FM170800 VRB03KT P6SM SCT040 BKN110
KMIA 162059Z 1621/1718 12010KT P6SM SCT040 SCT250 FM170100 00000KT P6SM FEW030 SCT250 FM171500 12005KT P6SM SCT040 SCT250
España
TAF LEBL 161700Z 1618/1718 06006KT 9999 FEW015 TX29/1712Z TN23/1705Z BECMG 1623/1701 33006KT BECMG 1709/1711 21010KT
TAF LEMD 161700Z 1618/1724 VRB05KT CAVOK TX37/1716Z TN19/1706Z TEMPO 1623/1706 02010KT PROB40 TEMPO 1712/1718 23008G18KT
Francia
TAF LFPO 161700Z 1618/1724 18005KT 9999 FEW040 PROB30 TEMPO 1618/1619 FEW040TCU PROB30 TEMPO 1711/1714 BKN014 PROB40 TEMPO 1714/1720 BKN014 SCT025TCU PROB30 TEMPO 1715/1718 23015G25KT 3000 TSRA SCT025CB PROB30 TEMPO 1723/1724 BKN014
Inglaterra
TAF EGLL 161657Z 1618/1724 20010KT 9999 FEW040 BECMG 1700/1703 7000 -RA SCT005 BKN010 TEMPO 1701/1706 3000 +RA RADZ BKN004 BECMG 1706/1709 9999 NSW SCT020 PROB30 TEMPO 1709/1713 8000 -SHRA BKN014 PROB30 TEMPO 1713/1719 6000 SHRA
Panamá
TAF COR MPTO 161700Z 1618/1724 00000KT 9999 SCT018 SCT090 PROB30 TEMPO 1618/1622 17006KT 7000 -TSRA SCT015CB BKN090 BECMG 1622/1702 31005KT
Paraguay
TAF SGAS 161640Z 1618/1718 16013KT 9999 BKN027 TX27/1718Z TN14/1710Z BECMG 1621/1623 19012KT 9999 OVC027 PROB40 1708/1711 6000 OVC015 BECMG 1713/1716 20010KT 9999 BKN020
Venezuela
TAF SVMI 161600Z 1618/1718 10012KT 9999 SCT016 BKN300 TX33/18Z TN21/09Z BECMG 1618/1622 08010KT SCT016

* Datos extraidos del Text DataServer de la NOAA (NOAA TEXT DATA SERVER)

Instituto Uruguayo de Meteorología

Dr. Javier Barrios Amorín 1488 - CP 11200
Mesa Central (598) 1895

Montevideo - Uruguay